Terminal Aerodrome Forecast
Issued by NWS Austin/San Antonio, TX

Home | Current Version | Previous Version | Text Only | Print | Product List | Glossary On
Versions: 1 2 3 4 5 6 7 8 9 10 11 12 13 14 15 16 17
000
FTUS44 KEWX 021700
TAFSAT
TAF
KSAT 021732Z 0218/0324 19012G18KT P6SM BKN040
     FM022200 19008KT P6SM SCT050
      TEMPO 0303/0306 VRB20G30KT 3SM TSRA BKN025CB
     FM030600 03008KT P6SM BKN080
     FM031000 01012KT P6SM SKC=

USA.gov is the U.S. government's official web portal to all federal, state and local government web resources and services.